createdAt,value
2019-05-19T00:02:20.694Z,11.10
2019-05-19T00:04:51.028Z,11.20
2019-05-19T00:07:21.332Z,10.40
2019-05-19T00:09:51.905Z,11.70
2019-05-19T00:12:22.227Z,11.03
2019-05-19T00:14:52.569Z,11.33
2019-05-19T00:17:22.917Z,11.87
2019-05-19T00:19:53.496Z,11.50
2019-05-19T00:22:23.840Z,10.30
2019-05-19T00:24:54.177Z,10.50
2019-05-19T00:27:24.537Z,11.30
2019-05-19T00:29:54.899Z,10.00
2019-05-19T00:32:25.257Z,10.77
2019-05-19T00:34:55.682Z,10.77
2019-05-19T00:37:26.022Z,11.13
2019-05-19T00:39:56.350Z,11.20
2019-05-19T00:42:26.737Z,10.90
2019-05-19T00:44:57.407Z,11.33
2019-05-19T00:47:27.762Z,12.00
2019-05-19T00:49:58.948Z,11.57
2019-05-19T00:52:30.360Z,10.37
2019-05-19T00:55:00.757Z,10.37
2019-05-19T00:57:31.953Z,8.30
2019-05-19T01:00:02.722Z,8.53
2019-05-19T01:02:34.547Z,8.00
2019-05-19T01:05:05.410Z,8.37
2019-05-19T01:07:35.822Z,8.27
2019-05-19T01:10:06.836Z,8.77
2019-05-19T01:12:37.373Z,7.97
2019-05-19T01:15:08.419Z,8.43
2019-05-19T01:17:38.823Z,8.37
2019-05-19T01:20:09.574Z,6.90
2019-05-19T01:22:41.100Z,7.27
2019-05-19T01:25:11.841Z,6.40
2019-05-19T01:27:42.169Z,6.37
2019-05-19T01:30:13.528Z,6.03
2019-05-19T01:32:43.941Z,7.37
2019-05-19T01:35:14.518Z,6.97
2019-05-19T01:37:44.890Z,6.67
2019-05-19T01:40:15.365Z,6.53
2019-05-19T01:42:45.666Z,6.33
2019-05-19T01:45:16.328Z,6.47
2019-05-19T01:47:47.999Z,6.57
2019-05-19T01:50:18.731Z,6.60
2019-05-19T01:52:49.256Z,5.87
2019-05-19T01:55:19.574Z,6.27
2019-05-19T01:57:49.922Z,7.03
2019-05-19T02:00:20.925Z,8.63
2019-05-19T02:02:51.407Z,8.50
2019-05-19T02:05:21.801Z,8.17
2019-05-19T02:07:52.123Z,8.33
2019-05-19T02:10:22.492Z,8.40
2019-05-19T02:12:52.774Z,8.60
2019-05-19T02:15:23.162Z,8.50
2019-05-19T02:17:53.451Z,9.93
2019-05-19T02:20:32.600Z,9.70
2019-05-19T02:22:55.729Z,10.20
2019-05-19T02:25:26.139Z,11.07
2019-05-19T02:27:56.493Z,10.80
2019-05-19T02:30:26.818Z,11.57
2019-05-19T02:32:57.140Z,11.23
2019-05-19T02:35:27.451Z,10.77
2019-05-19T02:37:58.461Z,10.47
2019-05-19T02:40:29.869Z,10.63
2019-05-19T02:43:01.247Z,11.40
2019-05-19T02:45:34.162Z,11.33
2019-05-19T02:48:05.726Z,10.97
2019-05-19T02:50:51.621Z,11.30
2019-05-19T02:53:09.868Z,11.17
2019-05-19T02:55:40.851Z,11.63
2019-05-19T02:58:13.400Z,10.30
2019-05-19T03:00:43.939Z,10.70
2019-05-19T03:03:15.302Z,11.00
2019-05-19T03:05:45.636Z,10.93
2019-05-19T03:08:15.956Z,10.10
2019-05-19T03:10:46.527Z,10.47
2019-05-19T03:13:16.841Z,11.07
2019-05-19T03:15:47.256Z,11.40
2019-05-19T03:18:17.689Z,11.60
2019-05-19T03:20:48.071Z,11.00
2019-05-19T03:23:18.404Z,10.73
2019-05-19T03:25:48.701Z,11.47
2019-05-19T03:28:19.113Z,10.90
2019-05-19T03:30:59.260Z,11.30
2019-05-19T03:33:31.296Z,11.80
2019-05-19T03:36:01.758Z,11.73
2019-05-19T03:38:32.064Z,10.73
2019-05-19T03:41:03.508Z,12.23
2019-05-19T03:43:33.933Z,11.73
2019-05-19T03:46:04.253Z,11.73
2019-05-19T03:48:35.761Z,12.23
2019-05-19T03:51:06.094Z,12.50
2019-05-19T03:53:36.437Z,12.20
2019-05-19T03:56:06.994Z,11.57
2019-05-19T03:58:37.467Z,11.40
2019-05-19T04:01:07.774Z,12.10
2019-05-19T04:03:39.127Z,11.50
2019-05-19T04:06:09.500Z,12.87
2019-05-19T04:08:40.259Z,12.53
2019-05-19T04:11:10.594Z,13.67
2019-05-19T04:13:41.091Z,13.20
2019-05-19T04:16:11.534Z,12.57
2019-05-19T04:18:41.899Z,11.93
2019-05-19T04:21:12.269Z,12.60
2019-05-19T04:23:42.609Z,12.00
2019-05-19T04:26:12.955Z,12.47
2019-05-19T04:28:43.388Z,12.00
2019-05-19T04:31:13.771Z,12.50
2019-05-19T04:33:44.107Z,13.27
2019-05-19T04:36:14.470Z,14.87
2019-05-19T04:38:44.897Z,14.03
2019-05-19T04:41:15.214Z,13.90
2019-05-19T04:43:45.626Z,14.10
2019-05-19T04:46:16.042Z,13.60
2019-05-19T04:48:46.405Z,13.27
2019-05-19T04:51:16.794Z,12.70
2019-05-19T04:53:47.126Z,12.03
2019-05-19T04:56:19.670Z,12.73
2019-05-19T04:58:49.441Z,13.03
2019-05-19T05:01:19.750Z,13.33
2019-05-19T05:03:50.289Z,13.40
2019-05-19T05:06:20.629Z,13.97
2019-05-19T05:08:50.962Z,13.80
2019-05-19T05:11:21.390Z,13.97
2019-05-19T05:13:51.709Z,13.60
2019-05-19T05:16:22.052Z,13.13
2019-05-19T05:18:52.604Z,12.57
2019-05-19T05:21:22.930Z,12.30
2019-05-19T05:23:53.253Z,13.27
2019-05-19T05:26:23.597Z,12.80
2019-05-19T05:28:53.922Z,12.47
2019-05-19T05:31:24.238Z,12.87
2019-05-19T05:33:54.623Z,13.13
2019-05-19T05:36:27.646Z,12.50
2019-05-19T05:38:56.989Z,12.63
2019-05-19T05:41:27.312Z,12.07
2019-05-19T05:43:57.637Z,12.27
2019-05-19T05:46:29.104Z,12.60
2019-05-19T05:48:59.401Z,12.93
2019-05-19T05:51:29.796Z,12.20
2019-05-19T05:54:00.189Z,12.60
2019-05-19T05:56:30.514Z,13.40
2019-05-19T05:59:00.906Z,11.43
2019-05-19T06:01:31.744Z,12.57
2019-05-19T06:04:09.200Z,11.40
2019-05-19T06:06:40.488Z,12.90
2019-05-19T06:09:10.819Z,13.10
2019-05-19T06:11:41.209Z,12.67
2019-05-19T06:14:12.703Z,12.77
2019-05-19T06:16:45.057Z,11.90
2019-05-19T06:19:15.360Z,12.50
2019-05-19T06:21:45.665Z,12.30
2019-05-19T06:24:16.166Z,12.33
2019-05-19T06:26:46.477Z,12.47
2019-05-19T06:29:16.821Z,12.70
2019-05-19T06:31:51.181Z,13.53
2019-05-19T06:34:22.317Z,12.50
2019-05-19T06:36:55.078Z,12.17
2019-05-19T06:39:24.513Z,13.30
2019-05-19T06:41:54.830Z,13.50
2019-05-19T06:44:25.321Z,13.13
2019-05-19T06:46:55.640Z,13.23
2019-05-19T06:49:26.022Z,12.50
2019-05-19T06:51:56.338Z,12.90
2019-05-19T06:54:26.698Z,12.73
2019-05-19T06:56:57.841Z,12.73
2019-05-19T06:59:28.291Z,12.40
2019-05-19T07:01:58.613Z,12.13
2019-05-19T07:04:28.997Z,12.80
2019-05-19T07:06:59.607Z,12.40
2019-05-19T07:09:30.036Z,11.90
2019-05-19T07:12:00.408Z,11.23
2019-05-19T07:14:31.917Z,11.57
2019-05-19T07:17:02.322Z,10.93
2019-05-19T07:19:32.642Z,11.43
2019-05-19T07:22:02.989Z,11.37
2019-05-19T07:24:33.326Z,11.30
2019-05-19T07:27:03.646Z,11.37
2019-05-19T07:29:33.986Z,11.13
2019-05-19T07:32:04.307Z,10.97
2019-05-19T07:34:34.708Z,10.83
2019-05-19T07:37:05.029Z,10.67
2019-05-19T07:39:35.382Z,10.27
2019-05-19T07:42:05.739Z,11.07
2019-05-19T07:44:36.243Z,10.27
2019-05-19T07:47:06.670Z,10.27
2019-05-19T07:49:37.082Z,11.20
2019-05-19T07:52:07.373Z,11.13
2019-05-19T07:54:38.089Z,11.67
2019-05-19T07:57:08.483Z,9.97
2019-05-19T07:59:39.434Z,11.37
2019-05-19T08:02:09.754Z,10.63
2019-05-19T08:04:40.137Z,11.00
2019-05-19T08:07:10.489Z,10.57
2019-05-19T08:09:41.342Z,9.50
2019-05-19T08:12:11.662Z,10.13
2019-05-19T08:14:42.006Z,10.00
2019-05-19T08:17:12.359Z,9.13
2019-05-19T08:19:42.823Z,9.20
2019-05-19T08:22:13.248Z,9.23
2019-05-19T08:24:43.571Z,10.20
2019-05-19T08:27:13.889Z,8.93
2019-05-19T08:29:44.226Z,9.37
2019-05-19T08:32:14.575Z,9.80
2019-05-19T08:34:44.996Z,9.90
2019-05-19T08:37:15.457Z,9.83
2019-05-19T08:39:46.282Z,9.60
2019-05-19T08:42:19.114Z,9.70
2019-05-19T08:44:49.554Z,8.77
2019-05-19T08:47:20.115Z,8.03
2019-05-19T08:49:51.011Z,8.43
2019-05-19T08:52:21.588Z,8.03
2019-05-19T08:54:52.173Z,7.90
2019-05-19T08:57:22.582Z,7.47
2019-05-19T08:59:54.197Z,7.33
2019-05-19T09:02:24.613Z,7.20
2019-05-19T09:04:54.993Z,7.37
2019-05-19T09:07:25.388Z,7.17
2019-05-19T09:09:56.762Z,7.77
2019-05-19T09:12:27.088Z,7.53
2019-05-19T09:14:57.557Z,7.37
2019-05-19T09:17:27.974Z,6.93
2019-05-19T09:19:58.341Z,6.93
2019-05-19T09:22:28.709Z,7.30
2019-05-19T09:24:59.077Z,6.97
2019-05-19T09:27:29.510Z,7.03
2019-05-19T09:29:59.857Z,6.93
2019-05-19T09:32:30.181Z,6.67
2019-05-19T09:35:00.555Z,6.20
2019-05-19T09:37:30.899Z,6.57
2019-05-19T09:40:01.228Z,6.07
2019-05-19T09:42:31.636Z,5.83
2019-05-19T09:45:02.005Z,5.90
2019-05-19T09:47:32.633Z,6.23
2019-05-19T09:50:03.229Z,6.50
2019-05-19T09:52:33.603Z,6.70
2019-05-19T09:55:04.306Z,6.40
2019-05-19T09:57:34.797Z,5.97
2019-05-19T10:00:06.364Z,6.00
2019-05-19T10:02:37.520Z,5.90
2019-05-19T10:05:08.024Z,6.13
2019-05-19T10:07:38.893Z,5.83
2019-05-19T10:10:17.813Z,6.13
2019-05-19T10:12:48.559Z,6.43
2019-05-19T10:15:19.145Z,6.60
2019-05-19T10:17:49.665Z,6.80
2019-05-19T10:20:20.369Z,6.37
2019-05-19T10:22:51.152Z,6.70
2019-05-19T10:25:23.073Z,6.60
2019-05-19T10:27:57.472Z,7.13
2019-05-19T10:30:27.481Z,5.97
2019-05-19T10:32:58.838Z,6.30
2019-05-19T10:35:29.212Z,6.93
2019-05-19T10:38:00.237Z,6.97
2019-05-19T10:40:30.533Z,8.07
2019-05-19T10:43:02.595Z,7.40
2019-05-19T10:45:32.989Z,7.93
2019-05-19T10:48:03.442Z,6.90
2019-05-19T10:50:33.787Z,8.30
2019-05-19T10:53:04.094Z,8.60
2019-05-19T10:55:36.849Z,8.47
2019-05-19T10:58:05.914Z,8.50
2019-05-19T11:00:36.273Z,8.70
2019-05-19T11:03:06.794Z,8.30
2019-05-19T11:05:37.156Z,8.90
2019-05-19T11:08:07.666Z,8.97
2019-05-19T11:10:38.456Z,8.67
2019-05-19T11:13:08.899Z,8.40
2019-05-19T11:15:39.658Z,8.80
2019-05-19T11:18:10.031Z,7.83
2019-05-19T11:20:40.822Z,8.50
2019-05-19T11:23:11.240Z,8.60
2019-05-19T11:25:50.987Z,8.00
2019-05-19T11:28:13.589Z,8.43
2019-05-19T11:30:44.004Z,8.30
2019-05-19T11:33:14.365Z,8.20
2019-05-19T11:35:44.790Z,8.27
2019-05-19T11:38:15.094Z,7.27
2019-05-19T11:40:45.546Z,7.80
2019-05-19T11:43:15.889Z,6.97
2019-05-19T11:45:46.271Z,6.60
2019-05-19T11:48:16.565Z,6.97
2019-05-19T11:50:47.027Z,6.70
2019-05-19T11:53:17.468Z,6.30
2019-05-19T11:55:47.774Z,6.63
2019-05-19T11:58:18.107Z,6.13
2019-05-19T12:00:48.569Z,6.93
2019-05-19T12:03:18.990Z,5.80
2019-05-19T12:05:49.403Z,6.77
2019-05-19T12:08:19.763Z,7.20
2019-05-19T12:10:50.084Z,6.33
2019-05-19T12:13:20.490Z,6.13
2019-05-19T12:15:50.905Z,5.80
2019-05-19T12:18:21.341Z,5.90
2019-05-19T12:20:52.744Z,5.87
2019-05-19T12:23:24.544Z,6.03
2019-05-19T12:25:55.460Z,5.87
2019-05-19T12:28:26.223Z,6.00
2019-05-19T12:30:56.566Z,5.77
2019-05-19T12:33:27.974Z,5.97
2019-05-19T12:35:58.329Z,6.03
2019-05-19T12:38:28.625Z,6.57
2019-05-19T12:40:59.246Z,5.97
2019-05-19T12:43:30.808Z,6.20
2019-05-19T12:46:01.485Z,6.47
2019-05-19T12:48:31.929Z,6.60
2019-05-19T12:51:08.678Z,6.53
2019-05-19T12:53:39.223Z,6.40
2019-05-19T12:56:09.620Z,6.83
2019-05-19T12:58:40.335Z,6.80
2019-05-19T13:01:10.813Z,6.47
2019-05-19T13:03:41.391Z,6.13
2019-05-19T13:06:11.801Z,6.00
2019-05-19T13:08:42.402Z,6.37
2019-05-19T13:11:12.834Z,5.80
2019-05-19T13:13:43.200Z,6.90
2019-05-19T13:16:13.535Z,6.47
2019-05-19T13:18:43.876Z,6.87
2019-05-19T13:21:14.241Z,6.90
2019-05-19T13:23:44.619Z,6.60
2019-05-19T13:26:15.049Z,6.17
2019-05-19T13:28:45.662Z,6.93
2019-05-19T13:31:16.080Z,6.50
2019-05-19T13:33:46.641Z,6.10
2019-05-19T13:36:17.307Z,6.17
2019-05-19T13:38:47.758Z,6.03
2019-05-19T13:41:18.139Z,5.63
2019-05-19T13:43:50.362Z,5.73
2019-05-19T13:46:20.689Z,5.70
2019-05-19T13:48:51.109Z,6.00
2019-05-19T13:51:21.863Z,5.67
2019-05-19T13:53:52.647Z,5.80
2019-05-19T13:56:23.502Z,5.70
2019-05-19T13:58:53.759Z,6.10
2019-05-19T14:01:28.439Z,5.50
2019-05-19T14:03:56.348Z,6.03
2019-05-19T14:06:26.837Z,5.93
2019-05-19T14:08:57.417Z,5.90
2019-05-19T14:11:27.795Z,6.20
2019-05-19T14:13:58.257Z,7.47
2019-05-19T14:16:28.784Z,6.47
2019-05-19T14:18:59.233Z,6.10
2019-05-19T14:21:29.709Z,5.90
2019-05-19T14:24:00.175Z,6.00
2019-05-19T14:26:30.651Z,5.90
2019-05-19T14:29:01.461Z,5.90
2019-05-19T14:31:31.840Z,6.20
2019-05-19T14:34:02.301Z,6.73
2019-05-19T14:36:32.813Z,6.50
2019-05-19T14:39:05.778Z,6.73
2019-05-19T14:41:43.473Z,5.43
2019-05-19T14:44:13.965Z,5.33
2019-05-19T14:46:44.332Z,4.83
2019-05-19T14:49:14.810Z,5.27
2019-05-19T14:51:45.275Z,5.50
2019-05-19T14:54:15.749Z,5.50
2019-05-19T14:56:46.163Z,5.37
2019-05-19T14:59:16.600Z,5.70
2019-05-19T15:01:47.072Z,5.33
2019-05-19T15:04:17.491Z,5.17
2019-05-19T15:06:47.851Z,5.30
2019-05-19T15:09:18.236Z,5.23
2019-05-19T15:11:48.619Z,5.37
2019-05-19T15:14:19.209Z,5.80
2019-05-19T15:16:50.142Z,5.37
2019-05-19T15:19:20.596Z,5.07
2019-05-19T15:21:50.944Z,4.57
2019-05-19T15:24:21.273Z,5.17
2019-05-19T15:26:51.853Z,5.10
2019-05-19T15:29:22.253Z,5.03
2019-05-19T15:31:52.568Z,5.43
2019-05-19T15:34:23.329Z,5.23
2019-05-19T15:36:53.662Z,5.17
2019-05-19T15:39:24.124Z,5.43
2019-05-19T15:41:57.550Z,4.97
2019-05-19T15:44:29.157Z,5.43
2019-05-19T15:46:59.470Z,5.63
2019-05-19T15:49:29.789Z,5.50
2019-05-19T15:52:03.632Z,5.50
2019-05-19T15:54:32.315Z,5.73
2019-05-19T15:57:02.682Z,5.60
2019-05-19T15:59:33.630Z,5.47
2019-05-19T16:02:04.034Z,5.60
2019-05-19T16:04:35.130Z,5.67
2019-05-19T16:07:05.463Z,5.77
2019-05-19T16:09:35.874Z,6.83
2019-05-19T16:12:06.183Z,6.70
2019-05-19T16:14:36.536Z,7.90
2019-05-19T16:17:06.832Z,6.73
2019-05-19T16:19:39.708Z,6.33
2019-05-19T16:22:09.237Z,6.60
2019-05-19T16:24:41.338Z,6.90
2019-05-19T16:27:12.952Z,6.57
2019-05-19T16:29:43.550Z,5.93
2019-05-19T16:32:13.941Z,6.33
2019-05-19T16:34:44.614Z,6.13
2019-05-19T16:37:14.957Z,6.43
2019-05-19T16:39:45.598Z,6.10
2019-05-19T16:42:16.276Z,6.10
2019-05-19T16:44:47.821Z,5.50
2019-05-19T16:47:18.172Z,5.73
2019-05-19T16:49:48.569Z,5.73
2019-05-19T16:52:20.011Z,6.17
2019-05-19T16:55:09.552Z,6.97
2019-05-19T16:57:40.498Z,6.30
2019-05-19T17:00:11.193Z,6.30
2019-05-19T17:02:41.518Z,6.83
2019-05-19T17:05:13.705Z,7.20
2019-05-19T17:07:44.347Z,7.13
2019-05-19T17:10:14.853Z,6.60
2019-05-19T17:12:46.293Z,6.60
2019-05-19T17:15:17.610Z,7.27
2019-05-19T17:17:47.928Z,6.07
2019-05-19T17:20:18.626Z,6.20
2019-05-19T17:22:49.203Z,6.40
2019-05-19T17:25:19.935Z,5.17
2019-05-19T17:27:50.247Z,4.90
2019-05-19T17:30:21.004Z,4.60
2019-05-19T17:32:51.317Z,4.77
2019-05-19T17:35:21.636Z,4.40
2019-05-19T17:37:51.948Z,4.40
2019-05-19T17:40:22.246Z,4.70
2019-05-19T17:42:52.573Z,4.80
2019-05-19T17:45:23.097Z,4.77
2019-05-19T17:47:57.644Z,5.07
2019-05-19T17:50:33.549Z,5.63
2019-05-19T17:53:04.427Z,5.57
2019-05-19T17:55:36.639Z,6.47
2019-05-19T17:58:06.667Z,6.60
2019-05-19T18:00:41.013Z,7.87
2019-05-19T18:03:11.610Z,7.87
2019-05-19T18:05:42.141Z,7.83
2019-05-19T18:08:12.570Z,8.40
2019-05-19T18:10:42.864Z,7.73
2019-05-19T18:13:13.154Z,7.50
2019-05-19T18:15:43.615Z,8.17
2019-05-19T18:18:13.938Z,7.50
2019-05-19T18:20:46.955Z,7.63
2019-05-19T18:23:16.342Z,8.10
2019-05-19T18:25:46.550Z,7.53
2019-05-19T18:28:16.877Z,7.40
2019-05-19T18:30:47.276Z,8.10
2019-05-19T18:33:17.644Z,7.90
2019-05-19T18:35:48.049Z,7.97
2019-05-19T18:38:19.993Z,7.37
2019-05-19T18:41:02.233Z,7.87
2019-05-19T18:43:32.987Z,7.93
2019-05-19T18:46:03.410Z,7.50
2019-05-19T18:48:34.485Z,7.50
2019-05-19T18:51:05.089Z,7.83
2019-05-19T18:53:35.488Z,8.07
2019-05-19T18:56:05.910Z,7.47
2019-05-19T18:58:36.324Z,8.03
2019-05-19T19:01:06.661Z,8.17
2019-05-19T19:03:38.420Z,9.13
2019-05-19T19:06:08.708Z,9.27
2019-05-19T19:08:39.137Z,9.20
2019-05-19T19:11:09.523Z,8.63
2019-05-19T19:13:40.042Z,9.67
2019-05-19T19:16:10.355Z,9.23
2019-05-19T19:18:41.002Z,8.70
2019-05-19T19:21:14.394Z,8.77
2019-05-19T19:23:44.851Z,8.30
2019-05-19T19:26:15.157Z,8.53
2019-05-19T19:28:45.461Z,8.03
2019-05-19T19:31:15.882Z,8.47
2019-05-19T19:33:46.193Z,8.07
2019-05-19T19:36:16.498Z,8.37
2019-05-19T19:38:46.895Z,8.03
2019-05-19T19:41:17.603Z,7.60
2019-05-19T19:43:49.394Z,7.93
2019-05-19T19:46:21.303Z,7.77
2019-05-19T19:48:52.045Z,7.93
2019-05-19T19:51:23.440Z,7.40
2019-05-19T19:53:53.894Z,7.37
2019-05-19T19:56:24.294Z,7.07
2019-05-19T19:58:54.584Z,7.13
2019-05-19T20:01:24.931Z,6.90
2019-05-19T20:03:55.344Z,6.53
2019-05-19T20:06:25.674Z,7.17
2019-05-19T20:08:55.995Z,7.50
2019-05-19T20:11:26.382Z,7.10
2019-05-19T20:13:56.685Z,6.70
2019-05-19T20:16:27.026Z,7.13
2019-05-19T20:18:57.351Z,6.33
2019-05-19T20:21:27.723Z,6.20
2019-05-19T20:23:58.262Z,5.80
2019-05-19T20:26:28.576Z,6.00
2019-05-19T20:28:58.965Z,5.77
2019-05-19T20:31:31.430Z,6.00
2019-05-19T20:34:01.401Z,5.73
2019-05-19T20:36:33.211Z,5.60
2019-05-19T20:39:07.161Z,5.63
2019-05-19T20:41:38.090Z,5.50
2019-05-19T20:44:08.420Z,5.67
2019-05-19T20:46:39.181Z,5.70
2019-05-19T20:49:09.482Z,4.73
2019-05-19T20:51:40.235Z,5.10
2019-05-19T20:54:10.562Z,5.40
2019-05-19T20:56:40.929Z,5.37
2019-05-19T20:59:11.237Z,5.23
2019-05-19T21:01:41.623Z,5.30
2019-05-19T21:04:11.951Z,5.40
2019-05-19T21:06:42.273Z,5.03
2019-05-19T21:09:13.196Z,5.40
2019-05-19T21:11:45.025Z,4.77
2019-05-19T21:14:15.297Z,4.20
2019-05-19T21:16:45.838Z,4.90
2019-05-19T21:19:16.201Z,4.30
2019-05-19T21:21:46.509Z,4.47
2019-05-19T21:24:17.120Z,4.70
2019-05-19T21:26:49.006Z,4.33
2019-05-19T21:29:20.795Z,4.83
2019-05-19T21:31:53.898Z,4.17
2019-05-19T21:34:25.727Z,4.37
2019-05-19T21:36:58.551Z,4.10
2019-05-19T21:39:28.911Z,4.23
2019-05-19T21:41:59.222Z,4.10
2019-05-19T21:44:29.578Z,4.47
2019-05-19T21:47:00.983Z,4.23
2019-05-19T21:49:31.331Z,4.33
2019-05-19T21:52:03.691Z,3.80
2019-05-19T21:54:33.857Z,3.87
2019-05-19T21:57:04.212Z,4.10
2019-05-19T21:59:37.118Z,4.00
2019-05-19T22:02:07.590Z,3.83
2019-05-19T22:04:38.226Z,3.87
2019-05-19T22:07:13.580Z,3.90
2019-05-19T22:09:43.937Z,4.03
2019-05-19T22:12:14.266Z,3.93
2019-05-19T22:14:44.621Z,3.87
2019-05-19T22:17:15.007Z,4.23
2019-05-19T22:19:45.379Z,3.93
2019-05-19T22:22:16.275Z,4.10
2019-05-19T22:24:46.530Z,4.30
2019-05-19T22:27:16.981Z,4.03
2019-05-19T22:29:47.364Z,3.80
2019-05-19T22:32:17.796Z,3.87
2019-05-19T22:34:48.257Z,4.10
2019-05-19T22:37:18.926Z,3.93
2019-05-19T22:39:49.301Z,3.50
2019-05-19T22:42:19.702Z,4.17
2019-05-19T22:44:50.001Z,3.70
2019-05-19T22:47:20.434Z,4.33
2019-05-19T22:49:50.809Z,3.90
2019-05-19T22:52:21.205Z,4.00
2019-05-19T22:54:52.857Z,4.43
2019-05-19T22:57:25.098Z,4.20
2019-05-19T22:59:56.092Z,4.00
2019-05-19T23:02:26.914Z,4.73
2019-05-19T23:04:58.530Z,4.40
2019-05-19T23:07:31.236Z,4.33
2019-05-19T23:10:02.824Z,5.20
2019-05-19T23:12:33.733Z,4.37
2019-05-19T23:15:04.215Z,4.90
2019-05-19T23:17:34.513Z,4.73
2019-05-19T23:20:05.846Z,5.10
2019-05-19T23:22:37.895Z,4.77
2019-05-19T23:25:09.171Z,5.17
2019-05-19T23:27:49.477Z,5.53
2019-05-19T23:30:21.197Z,5.73
2019-05-19T23:32:51.561Z,5.57
2019-05-19T23:35:22.901Z,5.30
2019-05-19T23:37:53.836Z,6.07
2019-05-19T23:40:24.807Z,5.60
2019-05-19T23:42:56.280Z,6.17
2019-05-19T23:45:27.416Z,5.53
2019-05-19T23:47:59.506Z,6.20
2019-05-19T23:50:30.201Z,6.67
2019-05-19T23:53:00.147Z,6.37
2019-05-19T23:55:31.681Z,6.33
2019-05-19T23:58:03.554Z,6.67
